Twin Falls, ID

7:40 AM MDT on September 23, 2014 (GMT -0600)
Joslin Field-Magic Valley Regional | Change Station
CLOSE
Current Station
Airport
Location: Twin Falls,
Elevation: 4150 ft
Nearby Weather Stations

Elev 4150 ft 42.48 °N, 114.49 °W | Updated 47 minutes ago

Clear
Clear
51 °F
Feels Like 51 °F
N
5
Wind Variable Wind from SE

Today
High -- | Low -- °F
--% Chance of Precip.
Yesterday
High -- | Low -- °F
Precip. -- in
7:26 AM 7:33 PM
Waning Crescent, 0% visible
Pressure 29.98 in
Visibility 10.0 miles
Clouds Clear
Dew Point 45 °F
Humidity 80%
Rainfall 0.00 in
Snow Depth 0 in , 0 in , 0 in
UV 0 out of 12
Pollen 6.80 out of 12
PM2.5 Good
Flu Activity Not available.
METAR KTWF 231253Z 14004KT 10SM CLR 11/07 A3010 RMK AO2 SLP150 T01060072

More Conditions Fewer Conditions

Pressure 29.98 in
Visibility 10.0 miles
Clouds Clear
Dew Point 45 °F
Humidity 80%
Rainfall 0.00 in
Snow Depth 0 in , 0 in , 0 in
UV 0 out of 12
Pollen 6.80 out of 12
PM2.5 Good
Flu Activity Not available.
METAR KTWF 231253Z 14004KT 10SM CLR 11/07 A3010 RMK AO2 SLP150 T01060072

More Conditions Fewer Conditions

10-Day Weather Forecast

Almanac

Astronomy

Sep. 23, 2014 Rise Set
Actual Time 7:26 AM MDT 7:33 PM MDT
Civil Twilight 6:58 AM MDT 8:01 PM MDT
Nautical Twilight 6:25 AM MDT 8:34 PM MDT
Astronomical Twilight 5:52 AM MDT 9:07 PM MDT
Moon 6:54 AM MDT 7:14 PM MDT
Length of Visible Light 13h 02m
Length of Day
12h 06m
Tomorrow will be 2m 51s shorter.
Waning Crescent, 0% of the Moon is Illuminated
Today
Waning Crescent
Sep 24
New
Oct 1
First Quarter
Oct 8
Full
Oct 15
Last Quarter

Today's Extremes

State Highs State Lows

Community

WunderPhotos

Upload Photos

1,755,669 photos uploaded!

WunderBlogs® & News

Nearby

Air Quality

  Air Quality AQ Index Pollutant
Yesterday Good
PM2.5
Current Good
PM2.5
Tuesday Good
PM2.5

Snow Depth

Station Depth Elevation
Lookout 0 in 5140 ft
Cozy Cove 0 in 5380 ft
Shanghi Summit 0 in 4570 ft
Schwartz Lake 0 in 8620 ft
Vienna Mine 0 in 8960 ft

Earthquake Activity

City Distance Mag. Time & Date
No recent earthquake activity has been reported nearby.
Minimum magnitude displayed is 2.5.

Coastal Water Temperatures

Place Temperature
No Stations Reporting

Nearby Weather Stations